createdAt,value
2019-05-30T00:01:00.053Z,88.31
2019-05-30T00:03:29.337Z,87.99
2019-05-30T00:05:58.774Z,88.37
2019-05-30T00:08:28.339Z,88.57
2019-05-30T00:10:58.529Z,88.94
2019-05-30T00:13:27.974Z,88.73
2019-05-30T00:15:58.665Z,88.12
2019-05-30T00:18:28.087Z,87.37
2019-05-30T00:20:58.738Z,88.80
2019-05-30T00:23:28.292Z,88.20
2019-05-30T00:25:57.617Z,88.53
2019-05-30T00:28:27.470Z,88.46
2019-05-30T00:30:58.250Z,88.84
2019-05-30T00:33:27.542Z,89.71
2019-05-30T00:35:57.666Z,90.04
2019-05-30T00:38:27.245Z,90.17
2019-05-30T00:40:57.781Z,89.95
2019-05-30T00:43:27.432Z,90.10
2019-05-30T00:45:57.932Z,89.58
2019-05-30T00:48:27.332Z,88.86
2019-05-30T00:50:58.261Z,88.96
2019-05-30T00:53:27.716Z,89.46
2019-05-30T00:55:57.125Z,90.14
2019-05-30T00:58:26.947Z,89.99
2019-05-30T01:00:56.810Z,89.58
2019-05-30T01:03:26.215Z,89.52
2019-05-30T01:05:56.678Z,89.72
2019-05-30T01:08:26.109Z,90.26
2019-05-30T01:10:56.868Z,90.98
2019-05-30T01:13:26.346Z,90.90
2019-05-30T01:15:56.857Z,91.27
2019-05-30T01:18:26.260Z,91.82
2019-05-30T01:20:57.016Z,92.25
2019-05-30T01:23:26.469Z,92.60
2019-05-30T01:25:57.233Z,92.47
2019-05-30T01:28:26.971Z,92.46
2019-05-30T01:31:00.297Z,92.39
2019-05-30T01:33:27.303Z,92.59
2019-05-30T01:35:57.769Z,93.10
2019-05-30T01:38:27.363Z,93.01
2019-05-30T01:40:57.685Z,93.35
2019-05-30T01:43:27.429Z,93.14
2019-05-30T01:45:58.029Z,93.53
2019-05-30T01:48:30.945Z,93.69
2019-05-30T01:51:00.411Z,93.96
2019-05-30T01:53:29.728Z,94.60
2019-05-30T01:56:00.690Z,94.89
2019-05-30T01:58:30.247Z,95.23
2019-05-30T02:01:16.338Z,96.09
2019-05-30T02:03:31.150Z,95.60
2019-05-30T02:06:01.035Z,95.15
2019-05-30T02:08:30.419Z,94.99
2019-05-30T02:11:01.294Z,94.77
2019-05-30T02:13:30.680Z,94.63
2019-05-30T02:15:59.964Z,94.79
2019-05-30T02:18:30.119Z,94.82
2019-05-30T02:20:59.589Z,94.75
2019-05-30T02:23:28.894Z,95.05
2019-05-30T02:25:59.969Z,95.08
2019-05-30T02:28:29.654Z,95.26
2019-05-30T02:31:00.510Z,95.24
2019-05-30T02:33:29.830Z,95.28
2019-05-30T02:36:01.019Z,95.29
2019-05-30T02:38:30.586Z,95.62
2019-05-30T02:41:01.292Z,96.04
2019-05-30T02:43:31.633Z,96.36
2019-05-30T02:46:01.064Z,96.71
2019-05-30T02:48:30.485Z,97.68
2019-05-30T02:51:01.001Z,97.64
2019-05-30T02:53:30.319Z,97.79
2019-05-30T02:56:01.309Z,97.73
2019-05-30T02:58:31.284Z,97.82
2019-05-30T03:01:01.945Z,97.72
2019-05-30T03:03:31.697Z,97.78
2019-05-30T03:06:01.919Z,97.55
2019-05-30T03:08:31.747Z,97.53
2019-05-30T03:11:02.412Z,97.40
2019-05-30T03:13:33.425Z,97.34
2019-05-30T03:16:04.509Z,97.73
2019-05-30T03:18:34.108Z,97.62
2019-05-30T03:21:05.453Z,97.62
2019-05-30T03:23:34.617Z,97.98
2019-05-30T03:26:04.926Z,98.20
2019-05-30T03:28:35.324Z,96.09
2019-05-30T03:31:14.695Z,89.74
2019-05-30T03:33:42.389Z,84.96
2019-05-30T03:36:19.984Z,83.45
2019-05-30T03:38:41.549Z,82.94
2019-05-30T03:41:12.133Z,82.32
2019-05-30T03:43:41.453Z,81.66
2019-05-30T03:46:16.202Z,79.21
2019-05-30T03:48:47.855Z,77.90
2019-05-30T03:51:20.106Z,75.69
2019-05-30T03:53:50.682Z,74.82
2019-05-30T03:56:23.972Z,73.59
2019-05-30T03:59:03.099Z,70.71
2019-05-30T04:01:56.465Z,66.85
2019-05-30T04:04:29.463Z,63.96
2019-05-30T04:07:03.693Z,60.60
2019-05-30T04:09:35.290Z,57.97
2019-05-30T04:12:16.731Z,55.31
2019-05-30T04:14:49.162Z,54.54
2019-05-30T04:17:19.969Z,56.34
2019-05-30T04:19:49.393Z,59.01
2019-05-30T04:22:19.622Z,59.95
2019-05-30T04:24:49.227Z,61.89
2019-05-30T04:27:18.721Z,64.17
2019-05-30T04:29:48.148Z,65.40
2019-05-30T04:32:18.774Z,65.26
2019-05-30T04:34:48.102Z,65.52
2019-05-30T04:37:18.939Z,66.26
2019-05-30T04:39:48.684Z,65.52
2019-05-30T04:42:20.608Z,65.64
2019-05-30T04:44:50.066Z,64.04
2019-05-30T04:47:20.806Z,62.81
2019-05-30T04:49:50.328Z,59.86
2019-05-30T04:52:24.086Z,56.50
2019-05-30T04:54:51.457Z,55.54
2019-05-30T04:57:25.747Z,54.69
2019-05-30T04:59:52.195Z,53.48
2019-05-30T05:02:23.288Z,52.42
2019-05-30T05:04:53.396Z,53.85
2019-05-30T05:07:22.760Z,54.42
2019-05-30T05:09:52.092Z,53.68
2019-05-30T05:12:22.413Z,50.74
2019-05-30T05:14:51.824Z,50.64
2019-05-30T05:17:21.292Z,45.22
2019-05-30T05:19:50.854Z,42.44
2019-05-30T05:22:21.158Z,41.58
2019-05-30T05:24:50.705Z,38.03
2019-05-30T05:27:20.154Z,38.56
2019-05-30T05:29:49.491Z,35.22
2019-05-30T05:32:18.963Z,33.77
2019-05-30T05:34:51.819Z,32.13
2019-05-30T05:37:19.354Z,30.74
2019-05-30T05:39:49.013Z,29.74
2019-05-30T05:42:18.350Z,29.18
2019-05-30T05:44:47.680Z,28.78
2019-05-30T05:47:18.378Z,29.07
2019-05-30T05:49:47.735Z,28.11
2019-05-30T05:52:17.057Z,26.92
2019-05-30T05:54:46.738Z,27.77
2019-05-30T05:57:16.736Z,27.93
2019-05-30T05:59:45.989Z,28.28
2019-05-30T06:02:17.541Z,31.53
2019-05-30T06:04:47.144Z,32.72
2019-05-30T06:07:16.448Z,33.53
2019-05-30T06:09:48.620Z,31.60
2019-05-30T06:12:17.957Z,29.98
2019-05-30T06:14:47.282Z,29.60
2019-05-30T06:17:17.360Z,27.92
2019-05-30T06:19:47.069Z,28.03
2019-05-30T06:22:17.395Z,28.31
2019-05-30T06:24:47.126Z,29.32
2019-05-30T06:27:17.717Z,31.17
2019-05-30T06:29:47.078Z,30.02
2019-05-30T06:32:16.973Z,28.88
2019-05-30T06:34:46.328Z,29.52
2019-05-30T06:37:15.631Z,29.89
2019-05-30T06:39:45.420Z,28.60
2019-05-30T06:42:14.779Z,29.86
2019-05-30T06:44:44.121Z,27.15
2019-05-30T06:47:13.926Z,27.51
2019-05-30T06:49:43.232Z,26.46
2019-05-30T06:52:12.555Z,26.26
2019-05-30T06:54:42.483Z,25.78
2019-05-30T06:57:11.768Z,24.90
2019-05-30T06:59:41.151Z,25.01
2019-05-30T07:02:11.536Z,24.72
2019-05-30T07:04:51.333Z,26.64
2019-05-30T07:07:12.762Z,24.96
2019-05-30T07:09:42.299Z,23.17
2019-05-30T07:12:12.102Z,24.56
2019-05-30T07:14:42.145Z,25.06
2019-05-30T07:17:11.533Z,23.90
2019-05-30T07:19:40.835Z,21.29
2019-05-30T07:22:10.727Z,21.54
2019-05-30T07:24:40.426Z,20.80
2019-05-30T07:27:09.721Z,21.39
2019-05-30T07:29:39.458Z,22.79
2019-05-30T07:32:09.028Z,23.06
2019-05-30T07:34:38.357Z,25.10
2019-05-30T07:37:09.230Z,25.43
2019-05-30T07:39:38.640Z,24.67
2019-05-30T07:42:07.931Z,24.45
2019-05-30T07:44:37.389Z,25.69
2019-05-30T07:47:06.756Z,24.50
2019-05-30T07:49:36.139Z,26.54
2019-05-30T07:52:05.641Z,27.42
2019-05-30T07:54:35.203Z,25.48
2019-05-30T07:57:04.604Z,26.32
2019-05-30T07:59:34.606Z,26.11
2019-05-30T08:02:04.379Z,23.88
2019-05-30T08:04:34.131Z,22.89
2019-05-30T08:07:03.638Z,23.72
2019-05-30T08:09:33.111Z,23.28
2019-05-30T08:12:02.418Z,22.72
2019-05-30T08:14:33.307Z,22.28
2019-05-30T08:17:02.658Z,22.00
2019-05-30T08:19:32.786Z,23.75
2019-05-30T08:22:03.047Z,26.37
2019-05-30T08:24:32.413Z,26.40
2019-05-30T08:27:01.759Z,26.16
2019-05-30T08:29:32.109Z,26.24
2019-05-30T08:32:01.932Z,27.81
2019-05-30T08:34:32.395Z,28.33
2019-05-30T08:37:02.267Z,28.19
2019-05-30T08:39:32.971Z,25.43
2019-05-30T08:42:02.283Z,27.37
2019-05-30T08:44:31.697Z,28.20
2019-05-30T08:47:01.183Z,28.99
2019-05-30T08:49:30.508Z,31.15
2019-05-30T08:51:59.994Z,34.22
2019-05-30T08:54:30.262Z,34.15
2019-05-30T08:56:59.626Z,36.18
2019-05-30T08:59:30.256Z,36.24
2019-05-30T09:01:59.667Z,37.96
2019-05-30T09:04:29.001Z,38.14
2019-05-30T09:06:58.400Z,38.50
2019-05-30T09:09:27.850Z,40.34
2019-05-30T09:11:57.164Z,42.67
2019-05-30T09:14:26.650Z,41.71
2019-05-30T09:16:57.078Z,42.92
2019-05-30T09:19:26.479Z,44.50
2019-05-30T09:21:56.288Z,44.85
2019-05-30T09:24:25.902Z,46.17
2019-05-30T09:26:55.271Z,46.73
2019-05-30T09:29:25.018Z,47.12
2019-05-30T09:31:54.399Z,49.40
2019-05-30T09:34:23.714Z,48.64
2019-05-30T09:36:53.225Z,48.64
2019-05-30T09:39:22.568Z,53.04
2019-05-30T09:41:51.950Z,56.62
2019-05-30T09:44:21.478Z,57.62
2019-05-30T09:46:50.973Z,56.84
2019-05-30T09:49:20.283Z,57.03
2019-05-30T09:51:51.105Z,56.25
2019-05-30T09:54:20.628Z,55.33
2019-05-30T09:56:51.092Z,55.27
2019-05-30T09:59:20.766Z,54.57
2019-05-30T10:01:50.295Z,54.21
2019-05-30T10:04:19.694Z,54.11
2019-05-30T10:06:49.149Z,51.01
2019-05-30T10:09:18.595Z,51.04
2019-05-30T10:11:47.900Z,51.07
2019-05-30T10:14:17.342Z,49.84
2019-05-30T10:16:50.663Z,50.96
2019-05-30T10:19:18.032Z,50.96
2019-05-30T10:21:47.315Z,50.26
2019-05-30T10:24:16.684Z,51.06
2019-05-30T10:26:47.167Z,49.95
2019-05-30T10:29:16.496Z,51.49
2019-05-30T10:31:46.493Z,52.63
2019-05-30T10:34:16.074Z,53.42
2019-05-30T10:36:47.137Z,55.29
2019-05-30T10:39:16.604Z,56.42
2019-05-30T10:41:47.480Z,57.63
2019-05-30T10:44:16.882Z,57.66
2019-05-30T10:46:47.563Z,59.63
2019-05-30T10:49:31.525Z,60.06
2019-05-30T10:51:49.639Z,60.98
2019-05-30T10:54:19.141Z,60.95
2019-05-30T10:56:49.863Z,60.81
2019-05-30T10:59:19.272Z,60.83
2019-05-30T11:01:50.217Z,62.32
2019-05-30T11:04:19.714Z,63.13
2019-05-30T11:07:10.391Z,64.20
2019-05-30T11:09:33.481Z,64.45
2019-05-30T11:12:02.994Z,64.84
2019-05-30T11:14:32.272Z,64.24
2019-05-30T11:17:01.577Z,64.08
2019-05-30T11:19:31.269Z,63.63
2019-05-30T11:22:00.597Z,63.41
2019-05-30T11:24:29.888Z,62.19
2019-05-30T11:27:00.142Z,60.65
2019-05-30T11:29:29.474Z,61.11
2019-05-30T11:31:59.098Z,60.68
2019-05-30T11:34:28.846Z,60.63
2019-05-30T11:36:59.344Z,60.14
2019-05-30T11:39:29.569Z,60.14
2019-05-30T11:41:59.552Z,58.08
2019-05-30T11:44:28.884Z,57.69
2019-05-30T11:46:58.220Z,57.04
2019-05-30T11:49:27.698Z,55.23
2019-05-30T11:51:57.893Z,54.14
2019-05-30T11:54:27.286Z,54.43
2019-05-30T11:56:58.142Z,49.75
2019-05-30T11:59:27.432Z,48.16
2019-05-30T12:01:56.742Z,49.93
2019-05-30T12:04:26.240Z,49.86
2019-05-30T12:06:56.749Z,50.54
2019-05-30T12:09:26.337Z,49.70
2019-05-30T12:11:59.217Z,47.88
2019-05-30T12:14:28.645Z,48.89
2019-05-30T12:16:58.023Z,47.70
2019-05-30T12:19:28.022Z,47.53
2019-05-30T12:21:57.689Z,46.87
2019-05-30T12:24:27.037Z,48.14
2019-05-30T12:26:56.616Z,48.93
2019-05-30T12:29:25.894Z,48.72
2019-05-30T12:31:57.529Z,48.39
2019-05-30T12:34:26.629Z,49.98
2019-05-30T12:36:56.409Z,50.19
2019-05-30T12:39:25.846Z,50.37
2019-05-30T12:41:56.799Z,50.37
2019-05-30T12:44:26.181Z,50.25
2019-05-30T12:46:55.609Z,51.73
2019-05-30T12:49:25.682Z,51.73
2019-05-30T12:51:56.155Z,53.49
2019-05-30T12:54:25.454Z,52.69
2019-05-30T12:56:56.552Z,52.72
2019-05-30T12:59:25.909Z,53.17
2019-05-30T13:01:55.235Z,52.54
2019-05-30T13:04:24.706Z,53.02
2019-05-30T13:06:55.866Z,52.98
2019-05-30T13:09:25.134Z,54.74
2019-05-30T13:11:56.369Z,55.70
2019-05-30T13:14:25.915Z,56.18
2019-05-30T13:16:55.648Z,56.66
2019-05-30T13:19:25.266Z,57.01
2019-05-30T13:21:55.410Z,56.94
2019-05-30T13:24:24.734Z,56.88
2019-05-30T13:26:55.586Z,56.10
2019-05-30T13:29:25.689Z,54.90
2019-05-30T13:31:56.249Z,53.57
2019-05-30T13:34:25.731Z,50.37
2019-05-30T13:36:55.128Z,48.74
2019-05-30T13:39:24.495Z,49.29
2019-05-30T13:41:53.949Z,48.60
2019-05-30T13:44:23.459Z,46.33
2019-05-30T13:46:52.781Z,46.28
2019-05-30T13:49:22.109Z,45.95
2019-05-30T13:51:51.715Z,46.34
2019-05-30T13:54:21.027Z,46.39
2019-05-30T13:56:50.379Z,46.39
2019-05-30T13:59:19.929Z,45.14
2019-05-30T14:01:49.251Z,45.57
2019-05-30T14:04:18.865Z,46.95
2019-05-30T14:06:49.970Z,47.55
2019-05-30T14:09:19.302Z,47.10
2019-05-30T14:11:49.248Z,48.10
2019-05-30T14:14:19.854Z,48.16
2019-05-30T14:16:49.139Z,47.86
2019-05-30T14:19:18.673Z,47.11
2019-05-30T14:21:48.561Z,46.51
2019-05-30T14:24:17.825Z,45.54
2019-05-30T14:26:49.096Z,46.51
2019-05-30T14:29:18.419Z,45.74
2019-05-30T14:31:47.723Z,46.62
2019-05-30T14:34:17.485Z,47.92
2019-05-30T14:36:46.830Z,47.92
2019-05-30T14:39:16.133Z,48.97
2019-05-30T14:41:46.063Z,48.97
2019-05-30T14:44:15.392Z,50.47
2019-05-30T14:46:44.679Z,51.01
2019-05-30T14:49:14.299Z,51.27
2019-05-30T14:51:43.599Z,52.09
2019-05-30T14:54:13.237Z,52.87
2019-05-30T14:56:43.253Z,52.72
2019-05-30T14:59:13.172Z,53.55
2019-05-30T15:01:42.398Z,53.55
2019-05-30T15:04:13.329Z,54.04
2019-05-30T15:06:42.749Z,55.43
2019-05-30T15:09:22.083Z,55.03
2019-05-30T15:11:45.710Z,54.63
2019-05-30T15:14:15.011Z,55.00
2019-05-30T15:16:44.335Z,55.36
2019-05-30T15:19:14.373Z,56.03
2019-05-30T15:21:43.839Z,57.52
2019-05-30T15:24:14.280Z,57.52
2019-05-30T15:26:44.256Z,58.02
2019-05-30T15:29:14.168Z,57.74
2019-05-30T15:31:43.460Z,58.48
2019-05-30T15:34:13.009Z,58.48
2019-05-30T15:36:42.350Z,58.54
2019-05-30T15:39:11.615Z,58.92
2019-05-30T15:41:41.054Z,57.98
2019-05-30T15:44:11.559Z,59.42
2019-05-30T15:46:40.861Z,60.89
2019-05-30T15:49:10.321Z,62.98
2019-05-30T15:51:39.686Z,62.98
2019-05-30T15:54:09.041Z,63.44
2019-05-30T15:56:38.663Z,63.44
2019-05-30T15:59:07.968Z,64.28
2019-05-30T16:01:37.270Z,64.38
2019-05-30T16:04:06.912Z,65.14
2019-05-30T16:06:36.219Z,65.14
2019-05-30T16:09:07.075Z,66.99
2019-05-30T16:11:37.136Z,69.82
2019-05-30T16:14:06.475Z,71.15
2019-05-30T16:16:40.247Z,72.23
2019-05-30T16:19:19.576Z,74.65
2019-05-30T16:21:38.018Z,77.12
2019-05-30T16:24:07.374Z,76.83
2019-05-30T16:26:36.914Z,77.82
2019-05-30T16:29:06.262Z,79.47
2019-05-30T16:31:35.587Z,79.75
2019-05-30T16:34:05.173Z,80.89
2019-05-30T16:36:34.520Z,81.29
2019-05-30T16:39:04.050Z,82.51
2019-05-30T16:41:33.512Z,82.36
2019-05-30T16:44:02.853Z,82.62
2019-05-30T16:46:32.184Z,83.75
2019-05-30T16:49:01.725Z,83.84
2019-05-30T16:51:31.032Z,83.18
2019-05-30T16:54:00.367Z,84.54
2019-05-30T16:56:29.845Z,85.04
2019-05-30T16:58:59.741Z,85.24
2019-05-30T17:01:29.100Z,86.35
2019-05-30T17:03:58.664Z,87.17
2019-05-30T17:06:27.998Z,87.14
2019-05-30T17:08:57.388Z,87.29
2019-05-30T17:11:27.036Z,87.34
2019-05-30T17:13:56.329Z,86.42
2019-05-30T17:16:26.269Z,86.61
2019-05-30T17:18:56.654Z,87.18
2019-05-30T17:21:26.789Z,87.53
2019-05-30T17:23:56.161Z,89.04
2019-05-30T17:26:25.690Z,88.31
2019-05-30T17:28:54.963Z,88.67
2019-05-30T17:31:24.267Z,88.68
2019-05-30T17:33:53.924Z,88.60
2019-05-30T17:36:24.177Z,88.62
2019-05-30T17:38:53.670Z,86.90
2019-05-30T17:41:23.133Z,87.45
2019-05-30T17:43:52.402Z,88.32
2019-05-30T17:46:21.745Z,88.57
2019-05-30T17:48:51.189Z,88.95
2019-05-30T17:51:21.809Z,89.30
2019-05-30T17:53:51.165Z,89.91
2019-05-30T17:56:21.947Z,90.20
2019-05-30T17:58:51.320Z,90.57
2019-05-30T18:01:20.681Z,91.18
2019-05-30T18:03:50.335Z,91.66
2019-05-30T18:06:20.371Z,91.87
2019-05-30T18:08:49.723Z,91.43
2019-05-30T18:11:19.262Z,91.90
2019-05-30T18:13:48.568Z,91.67
2019-05-30T18:16:17.828Z,92.43
2019-05-30T18:18:47.546Z,92.26
2019-05-30T18:21:16.854Z,92.06
2019-05-30T18:23:46.143Z,92.35
2019-05-30T18:26:15.810Z,92.67
2019-05-30T18:28:45.156Z,92.52
2019-05-30T18:31:14.472Z,91.80
2019-05-30T18:33:43.950Z,91.53
2019-05-30T18:36:13.254Z,92.26
2019-05-30T18:38:42.574Z,92.17
2019-05-30T18:41:15.824Z,92.67
2019-05-30T18:43:43.354Z,92.93
2019-05-30T18:46:12.664Z,92.79
2019-05-30T18:48:42.415Z,93.01
2019-05-30T18:51:11.953Z,92.25
2019-05-30T18:53:41.355Z,92.12
2019-05-30T18:56:10.871Z,92.20
2019-05-30T18:58:40.176Z,91.98
2019-05-30T19:01:09.510Z,92.36
2019-05-30T19:03:39.243Z,91.71
2019-05-30T19:06:08.622Z,92.17
2019-05-30T19:08:37.990Z,91.99
2019-05-30T19:11:07.489Z,92.24
2019-05-30T19:13:37.326Z,92.70
2019-05-30T19:16:06.720Z,93.12
2019-05-30T19:18:36.422Z,92.58
2019-05-30T19:21:05.826Z,92.60
2019-05-30T19:23:38.337Z,92.55
2019-05-30T19:26:06.830Z,93.31
2019-05-30T19:28:36.697Z,93.48
2019-05-30T19:31:06.071Z,93.12
2019-05-30T19:33:35.525Z,93.78
2019-05-30T19:36:04.832Z,93.55
2019-05-30T19:38:35.400Z,93.41
2019-05-30T19:41:05.286Z,94.04
2019-05-30T19:43:35.804Z,93.64
2019-05-30T19:46:05.249Z,94.00
2019-05-30T19:48:34.889Z,94.05
2019-05-30T19:51:04.196Z,93.83
2019-05-30T19:53:33.517Z,92.62
2019-05-30T19:56:04.232Z,93.19
2019-05-30T19:58:33.545Z,93.11
2019-05-30T20:01:02.857Z,93.27
2019-05-30T20:03:40.887Z,93.11
2019-05-30T20:06:03.321Z,93.08
2019-05-30T20:08:47.904Z,92.72
2019-05-30T20:11:03.899Z,93.06
2019-05-30T20:13:33.288Z,93.30
2019-05-30T20:16:02.565Z,93.36
2019-05-30T20:18:32.120Z,93.34
2019-05-30T20:21:01.487Z,93.19
2019-05-30T20:23:45.484Z,92.86
2019-05-30T20:26:02.461Z,93.45
2019-05-30T20:28:32.693Z,93.28
2019-05-30T20:31:02.047Z,92.83
2019-05-30T20:33:31.513Z,92.95
2019-05-30T20:36:00.827Z,93.12
2019-05-30T20:38:30.122Z,92.73
2019-05-30T20:40:59.670Z,92.55
2019-05-30T20:43:29.078Z,92.37
2019-05-30T20:45:58.406Z,92.12
2019-05-30T20:48:27.852Z,91.66
2019-05-30T20:50:57.198Z,91.21
2019-05-30T20:53:26.555Z,92.40
2019-05-30T20:55:56.215Z,92.34
2019-05-30T20:58:25.516Z,92.27
2019-05-30T21:00:55.894Z,92.48
2019-05-30T21:03:25.440Z,92.06
2019-05-30T21:05:55.532Z,92.41
2019-05-30T21:08:24.949Z,92.36
2019-05-30T21:10:55.923Z,91.84
2019-05-30T21:13:25.254Z,92.11
2019-05-30T21:15:56.620Z,92.04
2019-05-30T21:18:28.603Z,92.39
2019-05-30T21:20:57.960Z,91.94
2019-05-30T21:23:27.263Z,91.94
2019-05-30T21:25:57.425Z,91.63
2019-05-30T21:28:26.697Z,91.72
2019-05-30T21:30:56.034Z,91.74
2019-05-30T21:33:25.641Z,91.50
2019-05-30T21:35:55.114Z,91.73
2019-05-30T21:38:24.438Z,91.02
2019-05-30T21:40:54.037Z,90.11
2019-05-30T21:43:23.385Z,90.56
2019-05-30T21:45:52.667Z,90.84
2019-05-30T21:48:22.233Z,91.08
2019-05-30T21:50:51.584Z,91.06
2019-05-30T21:53:20.942Z,91.40
2019-05-30T21:55:50.507Z,91.70
2019-05-30T21:58:19.850Z,91.38
2019-05-30T22:01:22.212Z,89.70
2019-05-30T22:03:51.601Z,90.44
2019-05-30T22:06:21.055Z,90.51
2019-05-30T22:08:51.519Z,90.89
2019-05-30T22:11:21.566Z,90.85
2019-05-30T22:13:52.035Z,91.04
2019-05-30T22:16:21.522Z,91.74
2019-05-30T22:18:52.135Z,91.92
2019-05-30T22:21:21.663Z,92.39
2019-05-30T22:23:52.406Z,92.63
2019-05-30T22:26:21.971Z,92.18
2019-05-30T22:28:52.543Z,92.50
2019-05-30T22:31:22.383Z,91.95
2019-05-30T22:33:53.279Z,91.84
2019-05-30T22:36:22.716Z,92.32
2019-05-30T22:38:53.154Z,91.70
2019-05-30T22:41:23.141Z,92.30
2019-05-30T22:43:52.934Z,92.38
2019-05-30T22:46:22.581Z,92.79
2019-05-30T22:48:52.981Z,92.70
2019-05-30T22:51:22.403Z,92.98
2019-05-30T22:53:53.095Z,92.21
2019-05-30T22:56:22.774Z,92.55
2019-05-30T22:58:52.039Z,92.56
2019-05-30T23:01:21.538Z,92.22
2019-05-30T23:03:52.201Z,92.13
2019-05-30T23:06:22.474Z,91.71
2019-05-30T23:08:52.655Z,91.42
2019-05-30T23:11:21.980Z,91.51
2019-05-30T23:13:51.978Z,91.46
2019-05-30T23:16:21.549Z,92.27
2019-05-30T23:18:50.833Z,92.61
2019-05-30T23:21:20.133Z,92.49
2019-05-30T23:23:51.720Z,92.22
2019-05-30T23:26:21.106Z,91.96
2019-05-30T23:28:51.703Z,91.76
2019-05-30T23:31:21.365Z,91.55
2019-05-30T23:33:50.662Z,90.65
2019-05-30T23:36:19.945Z,90.66
2019-05-30T23:38:50.752Z,90.81
2019-05-30T23:41:20.111Z,90.97
2019-05-30T23:43:59.517Z,91.21
2019-05-30T23:46:20.605Z,90.71
2019-05-30T23:48:49.972Z,90.15
2019-05-30T23:51:19.293Z,90.53
2019-05-30T23:53:50.000Z,89.62
2019-05-30T23:56:19.455Z,90.25
2019-05-30T23:58:48.711Z,90.20
